createdAt,value
2023-02-24T00:02:00.449Z,43.40
2023-02-24T00:04:30.271Z,43.54
2023-02-24T00:06:58.340Z,43.83
2023-02-24T00:09:27.688Z,43.57
2023-02-24T00:12:00.177Z,43.67
2023-02-24T00:14:30.983Z,43.64
2023-02-24T00:16:59.201Z,43.80
2023-02-24T00:19:28.891Z,44.00
2023-02-24T00:21:57.301Z,43.83
2023-02-24T00:24:25.792Z,43.65
2023-02-24T00:26:55.095Z,43.99
2023-02-24T00:29:23.911Z,43.68
2023-02-24T00:31:53.215Z,43.40
2023-02-24T00:34:22.098Z,43.43
2023-02-24T00:36:50.149Z,43.19
2023-02-24T00:39:18.053Z,43.31
2023-02-24T00:41:48.352Z,43.04
2023-02-24T00:44:16.369Z,43.08
2023-02-24T00:46:45.563Z,42.85
2023-02-24T00:49:16.196Z,42.59
2023-02-24T00:51:45.975Z,42.82
2023-02-24T00:54:14.020Z,42.76
2023-02-24T00:56:43.122Z,42.46
2023-02-24T00:59:11.738Z,42.11
2023-02-24T01:01:40.316Z,42.12
2023-02-24T01:04:09.004Z,41.87
2023-02-24T01:06:42.115Z,41.77
2023-02-24T01:09:11.808Z,41.97
2023-02-24T01:11:39.895Z,41.90
2023-02-24T01:14:09.838Z,41.54
2023-02-24T01:16:37.976Z,41.54
2023-02-24T01:19:05.920Z,41.54
2023-02-24T01:21:34.525Z,41.29
2023-02-24T01:24:02.956Z,41.54
2023-02-24T01:26:30.900Z,41.24
2023-02-24T01:28:59.235Z,41.54
2023-02-24T01:31:27.849Z,41.17
2023-02-24T01:33:56.075Z,41.17
2023-02-24T01:36:26.291Z,40.94
2023-02-24T01:38:54.595Z,40.74
2023-02-24T01:41:24.105Z,40.59
2023-02-24T01:44:07.824Z,40.38
2023-02-24T01:46:36.947Z,40.44
2023-02-24T01:49:17.974Z,40.34
2023-02-24T01:52:06.201Z,40.40
2023-02-24T01:54:37.524Z,40.39
2023-02-24T01:57:06.813Z,40.21
2023-02-24T01:59:35.184Z,40.58
2023-02-24T02:02:05.117Z,40.19
2023-02-24T02:04:39.773Z,40.30
2023-02-24T02:07:08.670Z,40.43
2023-02-24T02:09:38.699Z,40.06
2023-02-24T02:12:06.713Z,40.27
2023-02-24T02:14:37.892Z,40.19
2023-02-24T02:17:18.051Z,40.34
2023-02-24T02:20:15.154Z,39.77
2023-02-24T02:23:01.972Z,39.68
2023-02-24T02:25:40.608Z,40.06
2023-02-24T02:28:14.585Z,39.82
2023-02-24T02:30:51.389Z,39.70
2023-02-24T02:33:27.566Z,39.60
2023-02-24T02:36:14.411Z,39.57
2023-02-24T02:38:51.364Z,39.57
2023-02-24T02:41:28.601Z,39.32
2023-02-24T02:44:21.218Z,39.50
2023-02-24T02:47:11.307Z,39.54
2023-02-24T02:49:43.384Z,39.16
2023-02-24T02:52:29.397Z,39.35
2023-02-24T02:55:03.141Z,39.32
2023-02-24T02:57:32.229Z,39.19
2023-02-24T03:00:00.209Z,39.24
2023-02-24T03:02:32.228Z,39.02
2023-02-24T03:05:02.014Z,39.43
2023-02-24T03:07:34.118Z,39.34
2023-02-24T03:10:04.072Z,39.23
2023-02-24T03:12:33.317Z,39.19
2023-02-24T03:15:04.025Z,39.40
2023-02-24T03:17:40.973Z,39.33
2023-02-24T03:20:35.539Z,39.35
2023-02-24T03:23:24.003Z,39.34
2023-02-24T03:25:54.990Z,39.34
2023-02-24T03:28:28.499Z,39.27
2023-02-24T03:31:01.254Z,39.59
2023-02-24T03:33:49.538Z,39.22
2023-02-24T03:36:18.441Z,39.14
2023-02-24T03:38:47.580Z,39.24
2023-02-24T03:41:15.529Z,39.29
2023-02-24T03:43:44.983Z,39.33
2023-02-24T03:46:14.687Z,39.38
2023-02-24T03:48:47.317Z,39.31
2023-02-24T03:51:18.930Z,39.33
2023-02-24T03:53:51.347Z,39.20
2023-02-24T03:56:22.136Z,39.14
2023-02-24T03:59:04.935Z,39.00
2023-02-24T04:01:59.339Z,38.70
2023-02-24T04:04:33.321Z,38.79
2023-02-24T04:07:12.470Z,38.58
2023-02-24T04:09:49.506Z,38.85
2023-02-24T04:12:25.267Z,38.68
2023-02-24T04:15:09.990Z,38.56
2023-02-24T04:17:40.207Z,38.85
2023-02-24T04:20:10.369Z,38.99
2023-02-24T04:22:38.952Z,38.62
2023-02-24T04:25:08.101Z,38.66
2023-02-24T04:27:36.223Z,38.41
2023-02-24T04:30:04.609Z,38.45
2023-02-24T04:32:33.824Z,38.59
2023-02-24T04:35:07.753Z,38.45
2023-02-24T04:37:36.478Z,38.38
2023-02-24T04:40:04.950Z,38.09
2023-02-24T04:42:33.564Z,38.08
2023-02-24T04:45:01.528Z,38.17
2023-02-24T04:47:30.796Z,38.14
2023-02-24T04:49:59.228Z,38.25
2023-02-24T04:52:27.707Z,38.12
2023-02-24T04:54:56.001Z,37.97
2023-02-24T04:57:25.207Z,38.05
2023-02-24T04:59:53.317Z,38.02
2023-02-24T05:02:21.263Z,37.72
2023-02-24T05:04:50.974Z,37.67
2023-02-24T05:07:18.983Z,37.53
2023-02-24T05:09:47.778Z,37.52
2023-02-24T05:12:16.409Z,37.49
2023-02-24T05:14:44.766Z,37.40
2023-02-24T05:17:12.721Z,37.45
2023-02-24T05:19:41.275Z,37.49
2023-02-24T05:22:09.392Z,37.36
2023-02-24T05:24:38.658Z,37.39
2023-02-24T05:27:07.799Z,37.47
2023-02-24T05:29:37.346Z,37.26
2023-02-24T05:32:05.820Z,37.23
2023-02-24T05:34:34.278Z,36.99
2023-02-24T05:37:02.898Z,37.02
2023-02-24T05:39:31.389Z,37.10
2023-02-24T05:42:00.464Z,37.11
2023-02-24T05:44:29.010Z,36.92
2023-02-24T05:46:57.569Z,37.08
2023-02-24T05:49:28.237Z,36.86
2023-02-24T05:51:57.906Z,36.87
2023-02-24T05:54:28.299Z,36.95
2023-02-24T05:56:59.012Z,36.84
2023-02-24T05:59:27.788Z,36.88
2023-02-24T06:01:56.055Z,36.49
2023-02-24T06:04:24.351Z,36.61
2023-02-24T06:06:52.873Z,36.44
2023-02-24T06:09:21.151Z,36.22
2023-02-24T06:11:49.919Z,36.33
2023-02-24T06:14:17.964Z,36.14
2023-02-24T06:16:47.466Z,35.89
2023-02-24T06:19:17.549Z,35.81
2023-02-24T06:21:45.686Z,35.72
2023-02-24T06:24:14.717Z,35.70
2023-02-24T06:26:44.393Z,35.62
2023-02-24T06:29:13.394Z,35.57
2023-02-24T06:31:42.270Z,35.62
2023-02-24T06:34:11.384Z,35.54
2023-02-24T06:36:39.428Z,35.50
2023-02-24T06:39:07.910Z,35.39
2023-02-24T06:41:36.330Z,35.62
2023-02-24T06:44:04.274Z,35.55
2023-02-24T06:46:32.473Z,35.65
2023-02-24T06:49:01.163Z,35.82
2023-02-24T06:51:29.282Z,35.82
2023-02-24T06:53:57.987Z,36.04
2023-02-24T06:56:27.151Z,36.04
2023-02-24T06:58:56.112Z,36.12
2023-02-24T07:01:26.006Z,35.99
2023-02-24T07:03:56.302Z,35.92
2023-02-24T07:06:24.365Z,36.01
2023-02-24T07:08:53.121Z,35.86
2023-02-24T07:11:21.582Z,35.90
2023-02-24T07:13:50.171Z,35.73
2023-02-24T07:16:20.372Z,35.70
2023-02-24T07:18:48.757Z,35.76
2023-02-24T07:21:17.045Z,35.90
2023-02-24T07:23:46.010Z,35.92
2023-02-24T07:26:15.267Z,35.81
2023-02-24T07:28:43.896Z,35.63
2023-02-24T07:31:13.500Z,35.77
2023-02-24T07:33:41.972Z,35.28
2023-02-24T07:36:11.655Z,35.24
2023-02-24T07:38:40.007Z,35.25
2023-02-24T07:41:09.093Z,35.44
2023-02-24T07:43:38.362Z,35.07
2023-02-24T07:46:08.095Z,35.71
2023-02-24T07:48:36.283Z,36.01
2023-02-24T07:51:11.235Z,35.56
2023-02-24T07:53:39.285Z,35.36
2023-02-24T07:56:11.269Z,34.40
2023-02-24T07:58:40.536Z,33.05
2023-02-24T08:01:09.092Z,32.19
2023-02-24T08:03:38.218Z,31.72
2023-02-24T08:06:06.356Z,31.08
2023-02-24T08:08:34.270Z,30.72
2023-02-24T08:11:02.314Z,29.97
2023-02-24T08:13:30.334Z,29.45
2023-02-24T08:15:58.404Z,28.62
2023-02-24T08:18:26.664Z,27.81
2023-02-24T08:20:54.789Z,27.58
2023-02-24T08:23:23.253Z,27.37
2023-02-24T08:25:51.459Z,27.33
2023-02-24T08:28:19.581Z,27.33
2023-02-24T08:30:47.778Z,27.37
2023-02-24T08:33:21.459Z,27.07
2023-02-24T08:35:53.523Z,27.03
2023-02-24T08:38:24.694Z,27.01
2023-02-24T08:40:54.002Z,26.81
2023-02-24T08:43:25.557Z,27.01
2023-02-24T08:45:55.023Z,27.22
2023-02-24T08:48:25.145Z,27.29
2023-02-24T08:50:54.199Z,27.20
2023-02-24T08:53:22.997Z,26.84
2023-02-24T08:55:52.551Z,26.86
2023-02-24T08:58:21.130Z,27.03
2023-02-24T09:00:49.731Z,26.94
2023-02-24T09:03:21.535Z,26.88
2023-02-24T09:05:49.492Z,27.13
2023-02-24T09:08:17.556Z,27.19
2023-02-24T09:10:47.859Z,27.06
2023-02-24T09:13:16.093Z,27.42
2023-02-24T09:15:44.502Z,27.44
2023-02-24T09:18:14.406Z,27.43
2023-02-24T09:20:42.600Z,27.48
2023-02-24T09:23:12.939Z,27.49
2023-02-24T09:25:41.844Z,27.54
2023-02-24T09:28:12.977Z,27.69
2023-02-24T09:30:41.785Z,27.75
2023-02-24T09:33:21.534Z,27.72
2023-02-24T09:36:00.049Z,27.86
2023-02-24T09:38:29.189Z,27.92
2023-02-24T09:40:57.772Z,27.85
2023-02-24T09:43:29.813Z,27.95
2023-02-24T09:46:01.131Z,27.99
2023-02-24T09:48:34.379Z,28.03
2023-02-24T09:51:04.588Z,27.88
2023-02-24T09:53:35.529Z,28.19
2023-02-24T09:56:05.886Z,28.53
2023-02-24T09:58:46.534Z,29.21
2023-02-24T10:01:36.620Z,30.12
2023-02-24T10:04:20.243Z,30.65
2023-02-24T10:06:50.342Z,31.06
2023-02-24T10:09:38.315Z,31.54
2023-02-24T10:12:09.014Z,31.34
2023-02-24T10:14:44.372Z,31.53
2023-02-24T10:17:24.739Z,31.74
2023-02-24T10:20:11.697Z,31.83
2023-02-24T10:22:56.904Z,31.79
2023-02-24T10:25:43.377Z,31.87
2023-02-24T10:28:17.508Z,31.75
2023-02-24T10:30:50.877Z,31.64
2023-02-24T10:33:21.681Z,31.50
2023-02-24T10:35:49.915Z,31.47
2023-02-24T10:38:18.299Z,31.54
2023-02-24T10:40:49.309Z,31.47
2023-02-24T10:43:19.884Z,31.71
2023-02-24T10:45:48.458Z,31.70
2023-02-24T10:48:32.300Z,31.55
2023-02-24T10:51:18.106Z,31.64
2023-02-24T10:53:50.483Z,31.68
2023-02-24T10:56:20.561Z,31.41
2023-02-24T10:59:01.689Z,31.18
2023-02-24T11:01:31.730Z,30.96
2023-02-24T11:04:01.560Z,31.04
2023-02-24T11:06:30.758Z,30.81
2023-02-24T11:08:58.879Z,30.54
2023-02-24T11:11:32.808Z,30.52
2023-02-24T11:14:02.058Z,30.59
2023-02-24T11:16:40.487Z,30.72
2023-02-24T11:19:10.740Z,30.92
2023-02-24T11:21:39.555Z,31.17
2023-02-24T11:24:13.578Z,31.56
2023-02-24T11:26:41.997Z,31.37
2023-02-24T11:29:20.644Z,31.09
2023-02-24T11:32:15.974Z,30.76
2023-02-24T11:34:56.720Z,30.82
2023-02-24T11:37:40.660Z,31.16
2023-02-24T11:40:19.663Z,31.35
2023-02-24T11:42:52.545Z,31.34
2023-02-24T11:45:39.874Z,31.31
2023-02-24T11:48:20.291Z,31.27
2023-02-24T11:51:06.538Z,31.31
2023-02-24T11:53:37.548Z,31.66
2023-02-24T11:56:12.239Z,31.63
2023-02-24T11:58:43.874Z,31.56
2023-02-24T12:01:20.346Z,31.67
2023-02-24T12:04:01.303Z,32.11
2023-02-24T12:06:33.716Z,32.20
2023-02-24T12:09:06.886Z,32.34
2023-02-24T12:11:39.860Z,32.63
2023-02-24T12:14:07.879Z,32.78
2023-02-24T12:16:38.334Z,32.68
2023-02-24T12:19:23.829Z,32.65
2023-02-24T12:21:56.033Z,32.88
2023-02-24T12:24:24.458Z,32.91
2023-02-24T12:26:58.535Z,32.91
2023-02-24T12:29:33.150Z,33.19
2023-02-24T12:32:07.036Z,33.47
2023-02-24T12:34:54.427Z,34.06
2023-02-24T12:37:31.309Z,34.80
2023-02-24T12:39:59.895Z,35.28
2023-02-24T12:42:46.216Z,35.56
2023-02-24T12:45:35.685Z,35.54
2023-02-24T12:48:39.748Z,35.93
2023-02-24T12:51:12.760Z,35.80
2023-02-24T12:53:44.788Z,36.03
2023-02-24T12:56:24.196Z,36.45
2023-02-24T12:58:56.655Z,36.70
2023-02-24T13:01:33.854Z,36.91
2023-02-24T13:04:07.902Z,37.48
2023-02-24T13:06:48.548Z,38.94
2023-02-24T13:09:35.405Z,40.10
2023-02-24T13:12:13.084Z,39.85
2023-02-24T13:14:42.114Z,39.99
2023-02-24T13:17:13.057Z,39.87
2023-02-24T13:19:43.188Z,40.00
2023-02-24T13:22:11.689Z,40.05
2023-02-24T13:24:55.186Z,39.93
2023-02-24T13:27:24.677Z,39.79
2023-02-24T13:29:56.137Z,40.03
2023-02-24T13:32:27.706Z,40.12
2023-02-24T13:34:57.058Z,40.09
2023-02-24T13:37:33.536Z,39.88
2023-02-24T13:40:13.361Z,39.71
2023-02-24T13:42:41.509Z,39.72
2023-02-24T13:45:12.683Z,38.66
2023-02-24T13:48:01.596Z,38.94
2023-02-24T13:50:41.276Z,39.22
2023-02-24T13:53:32.156Z,38.57
2023-02-24T13:56:33.105Z,38.73
2023-02-24T13:59:19.916Z,39.04
2023-02-24T14:01:49.982Z,39.55
2023-02-24T14:04:20.892Z,40.11
2023-02-24T14:06:50.656Z,40.77
2023-02-24T14:09:22.886Z,41.46
2023-02-24T14:11:55.081Z,41.79
2023-02-24T14:14:24.993Z,41.79
2023-02-24T14:16:53.135Z,41.67
2023-02-24T14:19:21.383Z,41.99
2023-02-24T14:22:00.740Z,42.19
2023-02-24T14:24:28.985Z,42.50
2023-02-24T14:26:58.883Z,42.39
2023-02-24T14:29:31.632Z,42.80
2023-02-24T14:32:00.511Z,43.17
2023-02-24T14:34:30.755Z,43.48
2023-02-24T14:37:01.273Z,43.48
2023-02-24T14:39:31.272Z,43.66
2023-02-24T14:42:08.729Z,44.27
2023-02-24T14:44:41.545Z,44.79
2023-02-24T14:47:11.773Z,45.79
2023-02-24T14:49:40.532Z,46.41
2023-02-24T14:52:22.112Z,47.04
2023-02-24T14:54:56.298Z,47.58
2023-02-24T14:57:26.577Z,47.57
2023-02-24T15:00:03.230Z,46.98
2023-02-24T15:02:40.949Z,47.23
2023-02-24T15:05:10.377Z,47.21
2023-02-24T15:07:39.327Z,47.02
2023-02-24T15:10:18.079Z,47.22
2023-02-24T15:12:49.779Z,47.58
2023-02-24T15:15:20.699Z,47.69
2023-02-24T15:17:54.835Z,48.04
2023-02-24T15:20:33.590Z,48.16
2023-02-24T15:23:01.816Z,48.89
2023-02-24T15:25:42.246Z,49.41
2023-02-24T15:28:23.323Z,49.67
2023-02-24T15:31:03.713Z,49.98
2023-02-24T15:33:39.587Z,50.07
2023-02-24T15:36:27.807Z,50.78
2023-02-24T15:39:01.594Z,51.50
2023-02-24T15:41:43.087Z,51.39
2023-02-24T15:44:28.472Z,52.35
2023-02-24T15:47:00.489Z,52.50
2023-02-24T15:49:28.953Z,52.66
2023-02-24T15:51:57.526Z,52.60
2023-02-24T15:54:36.990Z,53.03
2023-02-24T15:57:05.398Z,53.48
2023-02-24T15:59:33.339Z,54.09
2023-02-24T16:02:01.400Z,54.23
2023-02-24T16:04:42.846Z,54.25
2023-02-24T16:07:31.132Z,54.59
2023-02-24T16:10:00.289Z,54.61
2023-02-24T16:12:34.682Z,54.91
2023-02-24T16:15:04.601Z,54.72
2023-02-24T16:17:38.353Z,55.25
2023-02-24T16:20:08.560Z,55.84
2023-02-24T16:22:36.657Z,55.67
2023-02-24T16:25:06.734Z,55.83
2023-02-24T16:27:35.562Z,56.14
2023-02-24T16:30:04.018Z,56.58
2023-02-24T16:32:32.424Z,57.39
2023-02-24T16:35:02.648Z,57.43
2023-02-24T16:37:31.101Z,57.59
2023-02-24T16:40:02.433Z,58.21
2023-02-24T16:42:31.867Z,58.58
2023-02-24T16:45:00.059Z,58.60
2023-02-24T16:47:29.163Z,58.86
2023-02-24T16:49:57.297Z,58.82
2023-02-24T16:52:25.397Z,59.17
2023-02-24T16:54:54.003Z,58.78
2023-02-24T16:57:22.148Z,58.91
2023-02-24T16:59:50.536Z,59.06
2023-02-24T17:02:23.647Z,59.02
2023-02-24T17:04:51.804Z,59.23
2023-02-24T17:07:20.303Z,59.51
2023-02-24T17:09:48.711Z,59.65
2023-02-24T17:12:21.706Z,59.89
2023-02-24T17:14:50.266Z,59.96
2023-02-24T17:17:18.479Z,59.72
2023-02-24T17:19:46.810Z,60.08
2023-02-24T17:22:15.015Z,59.78
2023-02-24T17:24:43.286Z,59.89
2023-02-24T17:27:11.715Z,59.88
2023-02-24T17:29:47.296Z,59.96
2023-02-24T17:32:32.939Z,59.75
2023-02-24T17:35:16.806Z,59.87
2023-02-24T17:37:44.876Z,59.79
2023-02-24T17:40:13.191Z,59.51
2023-02-24T17:42:41.571Z,59.85
2023-02-24T17:45:11.738Z,60.35
2023-02-24T17:47:40.480Z,60.19
2023-02-24T17:50:09.780Z,59.96
2023-02-24T17:52:38.640Z,60.24
2023-02-24T17:55:07.661Z,60.34
2023-02-24T17:57:36.337Z,60.48
2023-02-24T18:00:06.384Z,60.52
2023-02-24T18:02:35.009Z,60.66
2023-02-24T18:05:03.141Z,60.60
2023-02-24T18:07:31.264Z,60.78
2023-02-24T18:09:59.753Z,60.21
2023-02-24T18:12:28.386Z,60.85
2023-02-24T18:15:07.231Z,60.67
2023-02-24T18:17:36.099Z,61.23
2023-02-24T18:20:04.832Z,61.09
2023-02-24T18:22:32.911Z,61.31
2023-02-24T18:25:01.145Z,60.79
2023-02-24T18:27:29.107Z,60.96
2023-02-24T18:29:57.366Z,60.75
2023-02-24T18:32:26.040Z,61.21
2023-02-24T18:34:54.114Z,60.84
2023-02-24T18:37:22.212Z,60.47
2023-02-24T18:39:50.316Z,60.69
2023-02-24T18:42:18.475Z,60.67
2023-02-24T18:44:46.413Z,60.76
2023-02-24T18:47:14.852Z,60.75
2023-02-24T18:49:42.857Z,61.03
2023-02-24T18:52:11.060Z,60.66
2023-02-24T18:54:39.058Z,60.65
2023-02-24T18:57:07.054Z,60.61
2023-02-24T18:59:35.068Z,60.81
2023-02-24T19:02:03.352Z,60.86
2023-02-24T19:04:31.420Z,60.91
2023-02-24T19:06:59.613Z,60.79
2023-02-24T19:09:27.671Z,60.82
2023-02-24T19:11:55.733Z,61.27
2023-02-24T19:14:23.788Z,61.12
2023-02-24T19:16:51.875Z,61.24
2023-02-24T19:19:19.853Z,61.38
2023-02-24T19:21:47.901Z,61.30
2023-02-24T19:24:16.992Z,61.48
2023-02-24T19:26:45.200Z,61.15
2023-02-24T19:29:13.512Z,61.52
2023-02-24T19:31:41.924Z,61.40
2023-02-24T19:34:14.822Z,61.20
2023-02-24T19:36:43.741Z,61.25
2023-02-24T19:39:14.078Z,61.38
2023-02-24T19:41:42.315Z,61.08
2023-02-24T19:44:10.926Z,61.24
2023-02-24T19:46:39.585Z,60.91
2023-02-24T19:49:07.594Z,61.35
2023-02-24T19:51:36.242Z,61.19
2023-02-24T19:54:04.653Z,61.42
2023-02-24T19:56:35.401Z,61.29
2023-02-24T19:59:05.024Z,61.49
2023-02-24T20:01:33.124Z,61.50
2023-02-24T20:04:02.505Z,61.55
2023-02-24T20:06:32.640Z,61.79
2023-02-24T20:09:00.935Z,61.89
2023-02-24T20:11:29.230Z,61.59
2023-02-24T20:13:57.456Z,61.80
2023-02-24T20:16:26.542Z,61.88
2023-02-24T20:18:55.436Z,61.60
2023-02-24T20:21:24.418Z,62.20
2023-02-24T20:23:52.712Z,61.95
2023-02-24T20:26:21.575Z,61.91
2023-02-24T20:28:50.216Z,62.14
2023-02-24T20:31:19.277Z,61.79
2023-02-24T20:33:47.976Z,62.11
2023-02-24T20:36:21.541Z,61.78
2023-02-24T20:38:50.825Z,61.88
2023-02-24T20:41:19.638Z,62.10
2023-02-24T20:43:48.339Z,61.78
2023-02-24T20:46:17.847Z,61.76
2023-02-24T20:48:45.932Z,61.59
2023-02-24T20:51:14.728Z,61.65
2023-02-24T20:53:56.104Z,61.54
2023-02-24T20:56:27.306Z,61.43
2023-02-24T20:59:02.833Z,61.71
2023-02-24T21:01:31.690Z,61.47
2023-02-24T21:04:00.745Z,61.30
2023-02-24T21:06:29.807Z,61.12
2023-02-24T21:08:58.408Z,61.34
2023-02-24T21:11:26.954Z,61.16
2023-02-24T21:13:55.162Z,61.50
2023-02-24T21:16:24.129Z,61.38
2023-02-24T21:18:52.876Z,61.52
2023-02-24T21:21:21.345Z,61.24
2023-02-24T21:23:49.613Z,61.45
2023-02-24T21:26:17.905Z,61.11
2023-02-24T21:28:46.312Z,61.46
2023-02-24T21:31:16.436Z,61.18
2023-02-24T21:33:44.574Z,61.19
2023-02-24T21:36:14.136Z,60.98
2023-02-24T21:38:42.377Z,61.09
2023-02-24T21:41:13.138Z,61.11
2023-02-24T21:43:42.111Z,61.23
2023-02-24T21:46:10.998Z,60.97
2023-02-24T21:48:39.016Z,61.06
2023-02-24T21:51:07.974Z,60.93
2023-02-24T21:53:38.062Z,60.91
2023-02-24T21:56:07.599Z,60.99
2023-02-24T21:58:35.637Z,61.13
2023-02-24T22:01:15.019Z,60.91
2023-02-24T22:03:43.528Z,60.82
2023-02-24T22:06:12.433Z,60.97
2023-02-24T22:08:40.545Z,61.13
2023-02-24T22:11:09.216Z,60.88
2023-02-24T22:13:37.687Z,60.87
2023-02-24T22:16:07.003Z,60.96
2023-02-24T22:18:35.108Z,60.72
2023-02-24T22:21:10.434Z,61.08
2023-02-24T22:23:38.426Z,60.71
2023-02-24T22:26:08.281Z,60.53
2023-02-24T22:28:38.221Z,60.50
2023-02-24T22:31:07.705Z,60.77
2023-02-24T22:33:37.255Z,61.00
2023-02-24T22:36:07.071Z,60.74
2023-02-24T22:38:36.204Z,60.67
2023-02-24T22:41:05.845Z,60.67
2023-02-24T22:43:34.786Z,60.63
2023-02-24T22:46:04.656Z,60.63
2023-02-24T22:48:33.959Z,60.64
2023-02-24T22:51:03.233Z,60.73
2023-02-24T22:53:32.178Z,60.73
2023-02-24T22:56:00.353Z,60.57
2023-02-24T22:58:28.752Z,60.34
2023-02-24T23:00:56.813Z,60.62
2023-02-24T23:03:27.661Z,60.36
2023-02-24T23:06:00.520Z,60.50
2023-02-24T23:08:30.140Z,60.36
2023-02-24T23:11:06.333Z,60.48
2023-02-24T23:13:34.431Z,60.32
2023-02-24T23:16:03.137Z,60.36
2023-02-24T23:18:31.846Z,60.34
2023-02-24T23:21:05.339Z,60.28
2023-02-24T23:23:34.181Z,60.36
2023-02-24T23:26:02.504Z,59.99
2023-02-24T23:28:30.729Z,60.03
2023-02-24T23:30:59.337Z,60.15
2023-02-24T23:33:27.444Z,60.06
2023-02-24T23:35:55.488Z,60.02
2023-02-24T23:38:23.637Z,59.96
2023-02-24T23:40:51.658Z,60.06
2023-02-24T23:43:19.860Z,60.01
2023-02-24T23:45:48.119Z,59.96
2023-02-24T23:48:16.355Z,60.02
2023-02-24T23:50:44.364Z,59.98
2023-02-24T23:53:12.486Z,60.11
2023-02-24T23:55:40.622Z,59.90
2023-02-24T23:58:08.655Z,59.80
